Tropical Cyclones
[Index]
Main Index Home Page Stock Weather Photos Extreme Storms Discussion Storm News and Storm Chasing Reports Tropical Cyclones / Hurricanes / Typhoons Weather Data and Links Wild Fires / Bushfires Weather Observation Techniques Weather Picture Catalogue Tornado Pictures and Reports Stock Video Footage and DVDs for sale
Season 1973-1974 Tropical Cyclone DEIDRE-DELIDA Track Map
Season 1973-1974 Summaries: [BoM-AU] [JTWC-AU] [JTWC-SIO] [JTWC-SPAC] [JTWC-SH]
<<- Previous TC | JTWC 1973-1974 Season | Next TC ->>

click for intensity scale information  Lat/long Grid: Show Hide

 Date Labels: Show Hide

Joint Typhoon Warning Centre Cyclone Data

Name: DEIDRE-DELIDA
Number: 849 / 7411

20 Dec 1973 06:00 UTC to 03 Jan 1974 06:00 UTC

    date/time    lat    long     hPa   cat  kts
1973-12-20 06   10.1    98.1                              
1973-12-20 12   10.3    97.8                              
1973-12-20 18   10.6    97.5                              
1973-12-21 00   10.9    97.2                              
1973-12-21 06   11.3    96.8                              
1973-12-21 12   11.8    96.4                              
1973-12-21 18   12.2    96.0                              
1973-12-22 00   12.4    95.7                              
1973-12-22 06   12.7    95.3                              
1973-12-22 12   12.9    94.7                              
1973-12-22 18   13.2    94.0                              
1973-12-23 00   13.3    93.3                              
1973-12-23 06   13.4    92.5                              
1973-12-23 12   13.6    91.3                              
1973-12-23 18   13.8    90.0                              
1973-12-24 00   13.9    88.7                              
1973-12-24 06   14.1    87.4                              
1973-12-24 12   14.2    85.9                              
1973-12-24 18   14.4    84.4                              
1973-12-25 00   14.6    82.8                              
1973-12-25 06   14.8    81.3                              
1973-12-25 12   14.9    80.4                              
1973-12-25 18   15.0    79.9                              
1973-12-26 00   15.0    79.4                              
1973-12-26 06   15.0    78.8                              
1973-12-26 12   15.1    77.9                              
1973-12-26 18   15.3    77.0                              
1973-12-27 00   15.3    76.2                              
1973-12-27 06   15.4    75.4                              
1973-12-27 12   15.7    74.6                              
1973-12-27 18   16.1    73.7                              
1973-12-28 00   16.6    72.9                              
1973-12-28 06   17.1    72.2                              
1973-12-28 12   17.7    71.6                              
1973-12-28 18   18.4    71.1                              
1973-12-29 00   19.0    70.6                              
1973-12-29 06   19.9    70.2                              
1973-12-29 12   21.3    69.8                              
1973-12-29 18   22.8    69.5                              
1973-12-30 00   24.2    69.2                              
1973-12-30 06   25.7    69.1                              
1973-12-30 12   27.1    69.6                              
1973-12-30 18   28.6    70.8                              
1973-12-31 00   29.3    72.7                              
1973-12-31 06   29.0    74.5                              
1973-12-31 12   28.1    74.8                              
1973-12-31 18   27.1    74.4                              
1974-01-01 00   26.4    73.6                              
1974-01-01 06   25.9    72.6                              
1974-01-01 12   25.9    71.3                              
1974-01-01 18   26.1    70.0                              
1974-01-02 00   26.4    68.8                              
1974-01-02 06   26.8    67.6                              
1974-01-02 12   27.2    66.7                              
1974-01-02 18   27.6    66.1                              
1974-01-03 00   28.2    65.6                              
1974-01-03 06   29.0    65.2                              
Winds are 1-min average.

Tropical cyclone tracks developed by Michael Bath using data from the Joint Typhoon Warning Centre Best Tracks and Google Maps.


[Australian Severe Weather index] [Copyright Notice] [Email Contacts] [Search This Site] [Privacy Policy]
Document: tropical_cyclone_deidre-delida.htm Updated: 18 September 2016